Time;durP1;ratioP1;P1;durP2;ratioP2;P2;SDS_P1;SDS_P2;PMS_P1;PMS_P2;Temp;Humidity;BMP_temperature;BMP_pressure;BME280_temperature;BME280_humidity;BME280_pressure;Samples;Min_cycle;Max_cycle;Signal;HPM_P1;HPM_P2
2021/05/05 00:00:29;;;;;;;2.28;0.60;;;19.40;73.90;;;;;;5033515;28;20029;-60
2021/05/05 00:02:55;;;;;;;1.98;0.70;;;19.40;73.90;;;;;;5033710;28;20388;-62
2021/05/05 00:05:21;;;;;;;2.15;0.50;;;19.40;73.90;;;;;;5033993;28;20028;-63
2021/05/05 00:07:47;;;;;;;1.67;0.40;;;19.40;73.90;;;;;;5033475;28;20041;-62
2021/05/05 00:10:14;;;;;;;1.85;0.52;;;19.40;73.90;;;;;;5033513;28;20025;-61
2021/05/05 00:12:40;;;;;;;1.20;0.30;;;19.50;74.00;;;;;;5033472;28;20152;-62
2021/05/05 00:15:13;;;;;;;2.15;0.43;;;19.40;73.80;;;;;;5033413;28;20030;-62
2021/05/05 00:17:38;;;;;;;2.75;0.50;;;19.40;73.90;;;;;;5033209;28;20057;-60
2021/05/05 00:20:06;;;;;;;3.65;0.50;;;19.40;73.90;;;;;;5033402;28;20110;-62
2021/05/05 00:22:33;;;;;;;3.42;0.50;;;19.40;73.90;;;;;;5033175;28;20022;-61
2021/05/05 00:24:58;;;;;;;1.48;0.38;;;19.40;73.90;;;;;;5033365;28;20022;-61
2021/05/05 00:27:24;;;;;;;1.05;0.45;;;19.40;73.90;;;;;;5033083;28;20062;-62
2021/05/05 00:29:49;;;;;;;1.27;0.17;;;19.40;73.80;;;;;;5032849;28;20554;-61
2021/05/05 00:32:15;;;;;;;3.15;0.55;;;19.40;73.90;;;;;;5032732;28;20021;-62
2021/05/05 00:34:40;;;;;;;1.05;0.28;;;19.40;73.90;;;;;;5032921;28;20033;-61
2021/05/05 00:37:06;;;;;;;1.73;0.40;;;19.40;73.80;;;;;;5032004;28;20427;-62
2021/05/05 00:39:32;;;;;;;1.80;0.45;;;19.40;73.70;;;;;;5032640;28;20079;-62
2021/05/05 00:41:57;;;;;;;2.20;0.25;;;19.40;73.80;;;;;;5032565;28;20026;-62
2021/05/05 00:44:24;;;;;;;1.30;0.30;;;19.40;73.80;;;;;;5032420;28;20032;-62
2021/05/05 00:46:51;;;;;;;2.10;0.40;;;19.40;73.80;;;;;;5032622;28;20100;-63
2021/05/05 00:49:16;;;;;;;3.13;0.80;;;19.40;74.30;;;;;;5032565;28;20021;-62
2021/05/05 00:51:42;;;;;;;1.60;0.30;;;19.40;73.80;;;;;;5032273;28;20025;-62
2021/05/05 00:54:08;;;;;;;2.13;0.60;;;19.30;73.80;;;;;;5032494;28;20471;-62
2021/05/05 00:56:33;;;;;;;1.77;0.50;;;19.40;73.80;;;;;;5032263;28;20026;-63
2021/05/05 00:58:59;;;;;;;1.27;0.40;;;19.40;73.80;;;;;;5032387;28;20044;-61
2021/05/05 01:01:25;;;;;;;1.08;0.40;;;19.40;73.80;;;;;;5032059;28;20065;-63
2021/05/05 01:03:50;;;;;;;1.17;0.50;;;19.40;73.60;;;;;;5032342;28;20022;-61
2021/05/05 01:06:16;;;;;;;3.55;0.47;;;19.40;73.70;;;;;;5032193;28;20108;-63
2021/05/05 01:08:44;;;;;;;1.23;0.30;;;19.40;73.80;;;;;;5032185;28;20290;-61
2021/05/05 01:11:10;;;;;;;1.83;0.38;;;19.40;73.80;;;;;;5032021;28;20052;-62
2021/05/05 01:13:35;;;;;;;0.90;0.35;;;19.40;73.70;;;;;;5031895;28;20480;-63
2021/05/05 01:16:01;;;;;;;1.58;0.30;;;19.40;73.70;;;;;;5032015;28;20044;-61
2021/05/05 01:18:27;;;;;;;1.67;0.68;;;19.40;73.70;;;;;;5031773;28;20068;-62
2021/05/05 01:20:58;;;;;;;1.50;0.40;;;19.40;73.70;;;;;;5031771;28;20028;-62
2021/05/05 01:23:24;;;;;;;2.30;0.40;;;19.40;73.70;;;;;;5031638;28;20022;-62
2021/05/05 01:25:50;;;;;;;0.93;0.30;;;19.40;73.60;;;;;;5032003;28;20076;-62
2021/05/05 01:28:16;;;;;;;2.13;0.30;;;19.40;73.60;;;;;;5031847;28;20033;-62
2021/05/05 01:30:42;;;;;;;1.45;0.55;;;19.30;73.60;;;;;;5031631;28;20037;-62
2021/05/05 01:33:08;;;;;;;1.75;0.40;;;19.30;73.60;;;;;;5031568;28;20439;-62
2021/05/05 01:35:33;;;;;;;1.60;0.40;;;19.30;73.60;;;;;;5031609;28;20026;-62
2021/05/05 01:37:59;;;;;;;2.88;0.47;;;19.30;73.60;;;;;;5031493;28;20033;-62
2021/05/05 01:40:33;;;;;;;3.28;0.30;;;19.30;73.50;;;;;;5031439;28;20049;-62
2021/05/05 01:43:01;;;;;;;1.33;0.40;;;19.30;73.60;;;;;;5031250;28;20029;-62
2021/05/05 01:45:27;;;;;;;0.98;0.40;;;19.30;73.60;;;;;;5031558;28;20022;-63
2021/05/05 01:47:57;;;;;;;0.57;0.30;;;19.30;73.60;;;;;;5031397;28;20032;-62
2021/05/05 01:50:23;;;;;;;1.42;0.30;;;19.30;73.60;;;;;;5031344;28;20121;-62
2021/05/05 01:52:48;;;;;;;0.85;0.45;;;19.40;73.60;;;;;;5031144;28;20108;-62
2021/05/05 01:55:14;;;;;;;2.17;0.40;;;19.30;73.40;;;;;;5030980;28;20037;-61
2021/05/05 01:57:43;;;;;;;1.85;0.40;;;19.30;73.40;;;;;;5031221;28;20036;-62
2021/05/05 02:00:13;;;;;;;2.25;0.52;;;19.30;73.40;;;;;;5031215;28;20021;-62
2021/05/05 02:02:39;;;;;;;1.15;0.47;;;19.30;73.40;;;;;;5030885;28;20028;-62
2021/05/05 02:05:06;;;;;;;1.27;0.40;;;19.30;73.40;;;;;;5031235;28;20029;-62
2021/05/05 02:07:32;;;;;;;0.40;0.28;;;19.30;73.40;;;;;;5031151;28;20034;-62
2021/05/05 02:09:58;;;;;;;1.17;0.40;;;19.30;73.40;;;;;;5031073;28;20033;-62
2021/05/05 02:12:24;;;;;;;1.20;0.40;;;19.30;73.40;;;;;;5030941;28;20037;-63
2021/05/05 02:14:49;;;;;;;0.95;0.30;;;19.30;73.40;;;;;;5031023;28;20083;-62
2021/05/05 02:17:16;;;;;;;2.42;0.40;;;19.30;73.40;;;;;;5030938;28;20029;-62
2021/05/05 02:19:42;;;;;;;1.55;0.50;;;19.30;73.30;;;;;;5030966;28;20025;-62
2021/05/05 02:22:08;;;;;;;4.60;0.45;;;19.30;73.30;;;;;;5030687;28;20017;-62
2021/05/05 02:24:33;;;;;;;1.08;0.30;;;19.30;73.30;;;;;;5030922;28;20032;-62
2021/05/05 02:26:59;;;;;;;0.88;0.20;;;19.30;73.30;;;;;;5031002;28;20495;-62
2021/05/05 02:29:25;;;;;;;1.40;0.30;;;19.30;73.20;;;;;;5030762;28;20488;-62
2021/05/05 02:31:50;;;;;;;2.42;0.35;;;19.30;73.20;;;;;;5030635;28;20029;-62
2021/05/05 02:34:16;;;;;;;0.65;0.20;;;19.30;73.20;;;;;;5029643;28;20029;-62
2021/05/05 02:36:42;;;;;;;1.17;0.35;;;19.20;73.20;;;;;;5029700;28;20044;-62
2021/05/05 02:39:10;;;;;;;0.22;0.10;;;19.30;73.20;;;;;;5030561;28;20057;-61
2021/05/05 02:41:37;;;;;;;1.65;0.30;;;19.30;73.20;;;;;;5030414;28;20104;-62
2021/05/05 02:44:04;;;;;;;0.98;0.20;;;19.30;73.20;;;;;;5030860;28;20084;-61
2021/05/05 02:46:29;;;;;;;0.93;0.35;;;19.30;73.20;;;;;;5030665;28;20488;-62
2021/05/05 02:48:55;;;;;;;1.63;0.32;;;19.30;73.10;;;;;;5030600;28;20044;-61
2021/05/05 02:51:20;;;;;;;1.55;0.40;;;19.30;73.10;;;;;;5030350;28;20034;-62
2021/05/05 02:53:46;;;;;;;0.65;0.28;;;19.30;73.10;;;;;;5030583;28;20141;-61
2021/05/05 02:56:11;;;;;;;1.77;0.47;;;19.30;73.10;;;;;;5030936;28;20516;-62
2021/05/05 02:58:37;;;;;;;1.60;0.40;;;19.30;73.10;;;;;;5030591;28;20136;-62
2021/05/05 03:01:03;;;;;;;1.42;0.40;;;19.30;73.10;;;;;;5030489;28;20147;-61
2021/05/05 03:03:28;;;;;;;0.82;0.20;;;19.30;73.10;;;;;;5030576;28;20511;-62
2021/05/05 03:05:54;;;;;;;1.25;0.40;;;19.30;73.60;;;;;;5030534;28;20108;-62
2021/05/05 03:08:19;;;;;;;1.73;0.50;;;19.30;73.10;;;;;;5034344;28;20044;-61
2021/05/05 03:10:46;;;;;;;1.08;0.50;;;19.30;73.00;;;;;;5034363;28;20502;-62
2021/05/05 03:13:11;;;;;;;2.75;0.45;;;19.30;72.90;;;;;;5034239;28;20490;-63
2021/05/05 03:15:37;;;;;;;1.58;0.40;;;19.30;72.90;;;;;;5034319;28;20029;-61
2021/05/05 03:18:03;;;;;;;0.77;0.40;;;19.30;73.00;;;;;;5034062;28;20209;-62
2021/05/05 03:20:29;;;;;;;0.85;0.30;;;19.30;72.90;;;;;;5034260;28;20092;-62
2021/05/05 03:22:54;;;;;;;1.15;0.30;;;19.30;72.90;;;;;;5033990;28;20029;-61
2021/05/05 03:25:20;;;;;;;1.58;0.30;;;19.20;72.90;;;;;;5034054;28;20052;-62
2021/05/05 03:27:45;;;;;;;2.40;0.70;;;19.20;72.90;;;;;;5034122;28;20025;-61
2021/05/05 03:30:11;;;;;;;1.52;0.38;;;19.30;73.00;;;;;;5034055;28;20045;-62
2021/05/05 03:32:37;;;;;;;0.40;0.28;;;19.20;72.90;;;;;;5033883;28;20025;-63
2021/05/05 03:35:04;;;;;;;1.42;0.30;;;19.30;72.90;;;;;;5034157;28;20032;-61
2021/05/05 03:37:29;;;;;;;1.02;0.17;;;19.30;72.80;;;;;;5034021;28;20390;-63
2021/05/05 03:39:55;;;;;;;1.08;0.30;;;19.30;72.80;;;;;;5033996;28;20048;-62
2021/05/05 03:42:20;;;;;;;1.23;0.40;;;19.20;72.80;;;;;;5033893;28;20116;-62
2021/05/05 03:44:46;;;;;;;1.10;0.50;;;19.30;72.70;;;;;;5034142;28;20030;-62
2021/05/05 03:47:11;;;;;;;1.08;0.25;;;19.30;72.80;;;;;;5033977;28;20083;-62
2021/05/05 03:49:37;;;;;;;1.20;0.22;;;19.30;72.70;;;;;;5033888;28;20022;-63
2021/05/05 03:52:03;;;;;;;1.00;0.35;;;19.20;72.70;;;;;;5033486;28;20082;-62
2021/05/05 03:54:29;;;;;;;1.15;0.50;;;19.20;72.70;;;;;;5033669;28;20055;-61
2021/05/05 03:56:54;;;;;;;1.48;0.40;;;19.20;72.70;;;;;;5033541;28;20080;-62
2021/05/05 03:59:20;;;;;;;0.75;0.22;;;19.20;72.80;;;;;;5033510;28;20037;-61
2021/05/05 04:01:45;;;;;;;0.90;0.30;;;19.20;72.70;;;;;;5033349;28;20026;-62
2021/05/05 04:04:11;;;;;;;1.58;0.20;;;19.30;72.70;;;;;;5033545;28;20048;-62
2021/05/05 04:06:36;;;;;;;0.85;0.30;;;19.20;72.60;;;;;;5033389;28;20030;-62
2021/05/05 04:09:02;;;;;;;1.38;0.25;;;19.30;72.70;;;;;;5033223;28;20026;-63
2021/05/05 04:11:27;;;;;;;1.50;0.50;;;19.20;72.70;;;;;;5033085;28;20026;-63
2021/05/05 04:13:54;;;;;;;0.82;0.32;;;19.20;72.60;;;;;;5033256;28;20035;-62
2021/05/05 04:16:19;;;;;;;0.68;0.20;;;19.20;72.70;;;;;;5033249;28;20108;-63
2021/05/05 04:18:45;;;;;;;3.00;0.32;;;19.20;72.60;;;;;;5032156;28;20108;-62
2021/05/05 04:21:11;;;;;;;2.53;0.30;;;19.20;72.70;;;;;;5033010;28;20068;-62
2021/05/05 04:23:36;;;;;;;2.38;0.57;;;19.30;72.70;;;;;;5032875;28;20121;-62
2021/05/05 04:26:04;;;;;;;1.83;0.52;;;19.30;72.20;;;;;;5033014;28;20432;-62
2021/05/05 04:28:29;;;;;;;1.08;0.30;;;19.30;72.40;;;;;;5032947;28;20030;-61
2021/05/05 04:30:55;;;;;;;1.08;0.30;;;19.30;72.30;;;;;;5032938;28;20029;-62
2021/05/05 04:33:21;;;;;;;1.23;0.40;;;19.30;72.30;;;;;;5032623;28;20032;-61
2021/05/05 04:35:46;;;;;;;1.10;0.30;;;19.20;72.40;;;;;;5032779;28;20029;-61
2021/05/05 04:38:13;;;;;;;1.45;0.50;;;19.30;72.40;;;;;;5032608;28;20049;-63
2021/05/05 04:40:39;;;;;;;0.57;0.20;;;19.20;72.20;;;;;;5032762;28;20220;-62
2021/05/05 04:43:04;;;;;;;1.65;0.52;;;19.20;72.30;;;;;;5032484;28;20483;-62
2021/05/05 04:45:30;;;;;;;3.13;0.73;;;19.40;73.20;;;;;;5032681;28;20075;-63
2021/05/05 04:47:55;;;;;;;4.43;0.80;;;19.50;73.10;;;;;;5032558;28;20115;-62
2021/05/05 04:50:21;;;;;;;6.22;0.82;;;19.70;73.20;;;;;;5032400;28;20038;-62
2021/05/05 04:52:47;;;;;;;5.68;0.75;;;19.70;72.90;;;;;;5032254;28;20071;-63
2021/05/05 04:55:13;;;;;;;2.38;0.60;;;19.80;73.40;;;;;;5032725;28;20025;-63
2021/05/05 04:57:38;;;;;;;2.47;0.80;;;19.80;73.50;;;;;;5031099;28;20488;-63
2021/05/05 05:00:08;;;;;;;3.67;0.60;;;19.80;73.60;;;;;;5032368;28;20068;-63
2021/05/05 05:02:33;;;;;;;4.03;0.60;;;19.90;73.90;;;;;;5032061;28;20104;-63
2021/05/05 05:05:01;;;;;;;2.72;0.60;;;19.90;73.90;;;;;;5032193;28;20053;-62
2021/05/05 05:07:26;;;;;;;2.95;0.70;;;19.90;73.90;;;;;;5032263;28;20039;-63
2021/05/05 05:09:52;;;;;;;3.80;0.70;;;20.00;74.10;;;;;;5032134;28;20029;-63
2021/05/05 05:12:18;;;;;;;2.78;0.65;;;19.90;74.10;;;;;;5031912;28;20028;-63
2021/05/05 05:14:44;;;;;;;2.85;0.50;;;19.90;74.00;;;;;;5032132;28;20643;-62
2021/05/05 05:17:09;;;;;;;3.80;0.70;;;19.90;73.20;;;;;;5030643;28;20026;-63
2021/05/05 05:19:35;;;;;;;4.68;0.80;;;19.90;74.00;;;;;;5031583;28;20021;-63
2021/05/05 05:22:01;;;;;;;3.90;0.70;;;19.90;74.10;;;;;;5031953;28;20039;-63
2021/05/05 05:24:27;;;;;;;6.63;1.02;;;19.90;72.70;;;;;;5031963;28;20028;-62
2021/05/05 05:26:53;;;;;;;7.53;0.63;;;19.90;73.90;;;;;;5031847;28;20029;-63
2021/05/05 05:29:19;;;;;;;8.40;0.77;;;19.90;74.10;;;;;;5031371;28;20033;-62
2021/05/05 05:31:45;;;;;;;3.40;0.90;;;19.90;72.50;;;;;;5030919;28;20129;-63
2021/05/05 05:34:10;;;;;;;3.15;1.02;;;19.90;72.90;;;;;;5031654;28;20495;-62
2021/05/05 05:36:36;;;;;;;3.80;0.65;;;19.90;73.10;;;;;;5031653;28;20026;-63
2021/05/05 05:39:02;;;;;;;6.03;0.98;;;19.90;73.20;;;;;;5031577;28;20032;-63
2021/05/05 05:41:28;;;;;;;3.30;0.50;;;20.00;72.90;;;;;;5031310;28;20035;-63
2021/05/05 05:43:53;;;;;;;2.33;0.60;;;20.00;72.80;;;;;;5031915;28;20021;-63
2021/05/05 05:46:19;;;;;;;3.00;0.80;;;20.00;72.70;;;;;;5032013;28;20380;-63
2021/05/05 05:48:44;;;;;;;4.18;0.80;;;20.00;73.20;;;;;;5031202;28;20033;-62
2021/05/05 05:51:10;;;;;;;6.00;0.65;;;20.00;73.10;;;;;;5031506;28;20025;-62
2021/05/05 05:53:36;;;;;;;3.20;0.85;;;20.10;73.10;;;;;;5031483;28;20041;-62
2021/05/05 05:56:02;;;;;;;6.95;1.10;;;20.10;72.90;;;;;;5031263;28;20125;-62
2021/05/05 05:58:27;;;;;;;3.45;0.80;;;20.10;72.70;;;;;;5032646;28;20025;-63
2021/05/05 06:00:53;;;;;;;4.47;0.98;;;20.10;73.10;;;;;;5040142;28;20072;-62
2021/05/05 06:03:18;;;;;;;6.38;0.98;;;20.10;72.70;;;;;;5030852;28;20026;-62
2021/05/05 06:05:44;;;;;;;5.43;1.27;;;20.10;73.00;;;;;;5031065;28;20029;-61
2021/05/05 06:08:10;;;;;;;7.45;1.38;;;20.10;72.60;;;;;;5030936;28;20076;-62
2021/05/05 06:10:35;;;;;;;9.23;1.08;;;20.10;72.30;;;;;;5030561;28;20562;-61
2021/05/05 06:13:01;;;;;;;4.97;1.38;;;20.10;71.90;;;;;;5036277;28;20044;-62
2021/05/05 06:15:26;;;;;;;4.63;1.20;;;20.00;72.00;;;;;;5050990;28;20032;-62
2021/05/05 06:17:52;;;;;;;10.07;1.50;;;20.00;72.50;;;;;;5050726;28;20032;-61
2021/05/05 06:20:18;;;;;;;7.45;1.13;;;20.00;71.80;;;;;;5050524;28;20025;-61
2021/05/05 06:22:44;;;;;;;7.63;1.58;;;20.00;71.50;;;;;;5042344;28;20045;-62
2021/05/05 06:25:10;;;;;;;11.20;1.33;;;20.00;71.60;;;;;;5031141;28;20061;-61
2021/05/05 06:27:36;;;;;;;4.95;0.70;;;20.10;71.60;;;;;;5030988;28;20036;-61
2021/05/05 06:30:04;;;;;;;5.63;0.75;;;20.00;71.20;;;;;;5030764;28;20510;-62
2021/05/05 06:32:30;;;;;;;2.50;1.00;;;20.10;71.30;;;;;;5030527;28;20060;-61
2021/05/05 06:34:56;;;;;;;7.85;0.95;;;20.10;71.10;;;;;;5030536;28;20131;-62
2021/05/05 06:37:22;;;;;;;7.90;1.27;;;20.10;71.60;;;;;;5030697;28;20328;-62
2021/05/05 06:39:48;;;;;;;9.18;1.48;;;20.10;71.30;;;;;;5030895;28;20013;-61
2021/05/05 06:42:14;;;;;;;5.93;1.00;;;20.10;71.80;;;;;;5034819;28;20506;-61
2021/05/05 06:44:40;;;;;;;9.23;1.30;;;20.10;72.10;;;;;;5037358;28;20033;-61
2021/05/05 06:47:05;;;;;;;7.18;1.23;;;20.10;72.00;;;;;;5053289;28;20036;-62
2021/05/05 06:49:33;;;;;;;3.20;0.80;;;20.20;72.00;;;;;;5057014;28;20029;-62
2021/05/05 06:51:59;;;;;;;8.85;1.38;;;20.10;71.10;;;;;;5036897;28;20031;-61
2021/05/05 06:54:24;;;;;;;6.22;1.25;;;20.10;71.80;;;;;;5037299;28;20096;-61
2021/05/05 06:56:50;;;;;;;4.97;1.20;;;20.00;71.60;;;;;;5037052;28;20037;-59
2021/05/05 06:59:16;;;;;;;6.55;0.90;;;20.00;69.80;;;;;;5054036;28;20037;-60
2021/05/05 07:01:42;;;;;;;7.05;0.98;;;19.90;71.10;;;;;;5056740;28;20082;-61
2021/05/05 07:04:09;;;;;;;6.47;1.17;;;19.90;71.20;;;;;;5057136;28;20025;-61
2021/05/05 07:06:35;;;;;;;4.97;0.90;;;19.80;71.00;;;;;;5057120;28;20025;-61
2021/05/05 07:09:01;;;;;;;6.60;1.25;;;19.80;70.80;;;;;;5056793;28;20029;-61
2021/05/05 07:11:27;;;;;;;7.18;1.33;;;19.70;70.80;;;;;;5057064;28;20047;-61
2021/05/05 07:13:53;;;;;;;3.88;0.70;;;19.70;70.90;;;;;;5055498;28;20040;-61
2021/05/05 07:16:20;;;;;;;3.00;0.82;;;19.70;70.80;;;;;;5056893;28;20035;-62
2021/05/05 07:18:49;;;;;;;4.70;0.82;;;19.70;70.30;;;;;;5048615;28;20481;-60
2021/05/05 07:21:15;;;;;;;3.25;0.73;;;19.70;71.00;;;;;;5040512;28;20502;-61
2021/05/05 07:23:43;;;;;;;2.55;0.70;;;19.80;70.80;;;;;;5036735;28;20029;-60
2021/05/05 07:26:09;;;;;;;2.53;0.80;;;19.80;70.50;;;;;;5037412;28;20036;-60
2021/05/05 07:28:35;;;;;;;2.80;0.70;;;19.70;69.50;;;;;;5036970;28;20025;-62
2021/05/05 07:31:01;;;;;;;5.50;0.80;;;19.70;70.30;;;;;;5035740;28;20368;-59
2021/05/05 07:33:26;;;;;;;5.18;0.85;;;19.70;69.70;;;;;;5036784;28;20365;-61
2021/05/05 07:35:56;;;;;;;4.95;1.10;;;19.70;69.40;;;;;;5036975;28;20060;-60
2021/05/05 07:48:51;;;;;;;7.55;0.90;;;19.80;69.70;;;;;;5056659;28;20055;-60
2021/05/05 07:51:06;;;;;;;5.97;0.80;;;19.80;69.80;;;;;;5053495;28;20035;-63
2021/05/05 07:53:32;;;;;;;3.85;0.90;;;19.90;68.80;;;;;;5051932;28;20433;-62
2021/05/05 07:55:59;;;;;;;5.80;1.08;;;19.80;68.00;;;;;;5033385;28;20022;-60
2021/05/05 07:58:26;;;;;;;4.72;1.38;;;19.80;69.10;;;;;;5033436;28;20476;-60
2021/05/05 08:00:52;;;;;;;3.78;0.75;;;19.70;69.00;;;;;;5033411;28;20037;-57
2021/05/05 08:03:17;;;;;;;3.85;0.80;;;19.70;69.10;;;;;;5033227;28;20025;-60
2021/05/05 08:05:43;;;;;;;5.43;0.80;;;19.70;69.20;;;;;;5033408;28;20038;-60
2021/05/05 08:08:08;;;;;;;6.97;0.98;;;19.70;69.10;;;;;;5033779;28;20025;-59
2021/05/05 08:10:34;;;;;;;5.95;1.30;;;19.70;69.30;;;;;;5033118;28;20049;-61
2021/05/05 08:12:59;;;;;;;2.72;0.80;;;19.70;68.90;;;;;;5033019;28;20025;-61
2021/05/05 08:15:27;;;;;;;3.63;0.80;;;19.70;69.20;;;;;;5033189;28;20553;-61
2021/05/05 08:17:52;;;;;;;5.07;1.23;;;19.70;68.90;;;;;;5032889;28;20404;-61
2021/05/05 08:20:18;;;;;;;3.55;0.73;;;19.60;68.50;;;;;;5033009;28;20018;-59
2021/05/05 08:22:45;;;;;;;1.95;0.63;;;19.70;68.80;;;;;;5032815;28;20031;-59
2021/05/05 08:25:11;;;;;;;4.00;0.82;;;19.60;68.50;;;;;;5032899;28;20506;-62
2021/05/05 08:27:37;;;;;;;4.03;0.75;;;19.70;69.00;;;;;;5032873;28;20045;-61
2021/05/05 08:30:03;;;;;;;4.72;0.82;;;19.70;68.90;;;;;;5032643;28;20464;-59
2021/05/05 08:32:29;;;;;;;3.50;0.70;;;19.70;68.80;;;;;;5032643;28;20060;-60
2021/05/05 08:34:54;;;;;;;4.05;1.38;;;19.70;68.50;;;;;;5032852;28;20053;-61
2021/05/05 08:37:20;;;;;;;2.83;0.70;;;19.70;68.70;;;;;;5032791;28;20072;-61
2021/05/05 08:39:45;;;;;;;6.05;0.82;;;19.70;68.60;;;;;;5032572;28;20395;-60
2021/05/05 08:42:12;;;;;;;5.85;0.80;;;19.70;68.50;;;;;;5032395;28;20032;-61
2021/05/05 08:44:38;;;;;;;3.90;0.80;;;19.70;68.60;;;;;;5032640;28;20076;-61
2021/05/05 08:47:04;;;;;;;3.00;0.80;;;19.80;68.60;;;;;;5032680;28;20025;-61
2021/05/05 08:49:31;;;;;;;5.35;1.30;;;19.80;68.40;;;;;;5032491;28;20025;-60
2021/05/05 08:51:59;;;;;;;4.15;0.90;;;19.70;68.50;;;;;;5032709;28;20503;-61
2021/05/05 08:54:24;;;;;;;3.45;0.88;;;19.70;68.50;;;;;;5032293;28;20037;-60
2021/05/05 08:56:50;;;;;;;3.97;0.85;;;19.70;68.60;;;;;;5032605;28;20028;-60
2021/05/05 08:59:16;;;;;;;3.78;1.08;;;19.60;68.20;;;;;;5046688;28;20048;-60
2021/05/05 09:01:43;;;;;;;3.88;0.80;;;19.60;68.80;;;;;;5052036;28;20028;-61
2021/05/05 09:04:09;;;;;;;2.95;0.93;;;19.60;68.80;;;;;;5052054;28;20051;-60
2021/05/05 09:06:43;;;;;;;4.15;1.00;;;19.60;68.80;;;;;;5052085;28;20044;-60
2021/05/05 09:09:09;;;;;;;2.38;0.65;;;19.70;68.70;;;;;;5052030;28;20113;-61
2021/05/05 09:11:46;;;;;;;2.08;0.70;;;19.70;68.00;;;;;;5051932;28;20060;-60
2021/05/05 09:14:12;;;;;;;2.20;0.65;;;19.70;68.30;;;;;;5052107;28;20037;-61
2021/05/05 09:16:38;;;;;;;4.20;0.65;;;19.70;68.50;;;;;;5052092;28;20037;-61
2021/05/05 09:19:10;;;;;;;5.45;0.70;;;19.70;68.20;;;;;;5051928;28;20021;-61
2021/05/05 09:21:38;;;;;;;2.35;0.77;;;19.70;67.80;;;;;;5051751;28;20110;-60
2021/05/05 09:24:38;;;;;;;2.60;0.82;;;19.60;69.00;;;;;;5052044;28;20029;-60
2021/05/05 09:27:06;;;;;;;2.63;0.70;;;19.50;68.60;;;;;;4990405;28;20090;-59
2021/05/05 09:29:48;;;;;;;2.53;0.63;;;19.60;68.20;;;;;;4990137;28;20050;-61
2021/05/05 09:32:16;;;;;;;1.60;0.52;;;19.60;67.60;;;;;;4970701;28;20023;-61
2021/05/05 09:34:53;;;;;;;5.53;0.77;;;19.60;67.70;;;;;;4970913;28;20051;-61
2021/05/05 09:37:22;;;;;;;3.97;0.90;;;19.60;67.20;;;;;;4970808;28;20082;-61
2021/05/05 09:40:00;;;;;;;2.95;0.70;;;19.50;66.60;;;;;;4970649;28;20031;-61
2021/05/05 09:42:30;;;;;;;3.13;0.80;;;19.50;66.40;;;;;;4985043;28;20042;-60
2021/05/05 09:45:02;;;;;;;3.58;0.70;;;19.50;67.60;;;;;;4989605;28;20047;-60
2021/05/05 09:47:54;;;;;;;4.65;0.88;;;19.50;66.80;;;;;;4990010;28;20031;-60
2021/05/05 09:50:44;;;;;;;2.88;0.90;;;19.50;67.50;;;;;;4989816;28;20073;-61
2021/05/05 09:53:22;;;;;;;3.25;0.60;;;19.50;67.40;;;;;;4989514;28;20117;-62
2021/05/05 09:56:03;;;;;;;3.45;0.80;;;19.50;67.70;;;;;;4989634;28;20105;-61
2021/05/05 09:58:38;;;;;;;2.13;0.68;;;19.60;67.60;;;;;;4989554;28;20038;-61
2021/05/05 10:01:03;;;;;;;3.40;0.90;;;19.60;66.50;;;;;;4980274;28;20026;-60
2021/05/05 10:03:55;;;;;;;3.42;0.70;;;19.60;66.60;;;;;;5021824;28;20103;-61
2021/05/05 10:06:26;;;;;;;3.38;0.85;;;19.60;66.30;;;;;;5031221;28;20025;-60
2021/05/05 10:09:04;;;;;;;3.03;0.70;;;19.70;66.30;;;;;;5030955;28;20028;-61
2021/05/05 10:11:35;;;;;;;1.95;0.70;;;19.70;66.20;;;;;;5030804;28;20025;-61
2021/05/05 10:14:09;;;;;;;5.43;0.90;;;19.70;66.80;;;;;;5029686;28;20075;-62
2021/05/05 10:16:39;;;;;;;2.40;0.60;;;19.70;65.50;;;;;;5030533;28;20209;-62
2021/05/05 10:19:12;;;;;;;2.97;0.80;;;19.60;66.80;;;;;;5031342;28;20056;-61
2021/05/05 10:21:45;;;;;;;2.85;0.82;;;19.60;66.20;;;;;;5030464;28;20029;-61
2021/05/05 10:24:11;;;;;;;3.03;0.60;;;19.70;66.40;;;;;;5038105;28;20552;-61
2021/05/05 10:26:40;;;;;;;3.55;0.60;;;19.70;66.10;;;;;;5050813;28;20104;-61
2021/05/05 10:29:05;;;;;;;2.08;0.60;;;19.80;66.30;;;;;;5050562;28;20025;-62
2021/05/05 10:31:34;;;;;;;2.67;0.55;;;19.70;65.80;;;;;;5050500;28;20095;-61
2021/05/05 10:34:01;;;;;;;2.35;0.70;;;19.70;66.30;;;;;;5050701;28;20025;-61
2021/05/05 10:36:36;;;;;;;3.63;0.70;;;19.70;65.80;;;;;;5050714;28;20468;-61
2021/05/05 10:39:29;;;;;;;6.22;1.00;;;19.50;65.20;;;;;;5050650;28;20025;-62
2021/05/05 10:42:00;;;;;;;1.13;0.60;;;19.40;65.20;;;;;;5041706;28;20108;-62
2021/05/05 10:44:36;;;;;;;4.55;0.80;;;19.30;66.10;;;;;;5050640;28;20071;-61
2021/05/05 10:47:34;;;;;;;1.58;0.60;;;19.40;66.50;;;;;;5050732;28;20025;-61
2021/05/05 10:50:11;;;;;;;1.30;0.55;;;19.40;67.00;;;;;;5050646;28;20021;-62
2021/05/05 10:52:42;;;;;;;3.97;0.77;;;19.40;66.40;;;;;;5050348;28;20041;-62
2021/05/05 10:55:13;;;;;;;2.13;0.63;;;19.50;66.50;;;;;;5050478;28;20032;-61
2021/05/05 10:57:41;;;;;;;1.33;0.70;;;19.60;66.30;;;;;;5050463;28;20025;-62
2021/05/05 11:00:13;;;;;;;3.60;0.60;;;19.70;66.30;;;;;;5049129;28;20021;-62
2021/05/05 11:02:57;;;;;;;3.25;0.70;;;19.70;66.30;;;;;;5050372;28;20020;-61
2021/05/05 11:05:29;;;;;;;2.72;0.80;;;19.70;66.30;;;;;;5041668;28;20028;-61
2021/05/05 11:07:56;;;;;;;2.28;0.60;;;19.60;66.40;;;;;;5033598;28;20029;-61
2021/05/05 11:10:45;;;;;;;1.33;0.40;;;19.60;66.70;;;;;;5030533;28;20236;-61
2021/05/05 11:13:30;;;;;;;3.20;0.70;;;19.60;66.70;;;;;;5030482;28;20033;-62
2021/05/05 11:15:57;;;;;;;2.33;0.65;;;19.60;66.80;;;;;;5029531;28;20320;-62
2021/05/05 11:18:25;;;;;;;1.40;0.57;;;19.60;66.80;;;;;;5030802;28;20049;-61
2021/05/05 11:21:27;;;;;;;2.33;0.60;;;19.60;66.70;;;;;;5030689;28;20498;-62
2021/05/05 11:23:53;;;;;;;1.33;0.40;;;19.60;66.80;;;;;;5006640;28;20515;-62
2021/05/05 11:26:31;;;;;;;4.72;0.95;;;19.60;66.80;;;;;;5028924;28;20091;-61
2021/05/05 11:29:03;;;;;;;2.75;0.98;;;19.60;66.90;;;;;;5031071;28;20065;-62
2021/05/05 11:31:49;;;;;;;2.35;0.77;;;19.50;66.90;;;;;;5033171;28;20083;-62
2021/05/05 11:34:18;;;;;;;2.30;0.50;;;19.50;66.90;;;;;;5033375;28;20561;-62
2021/05/05 11:36:45;;;;;;;2.92;0.80;;;19.50;66.90;;;;;;5033172;28;20108;-61
2021/05/05 11:39:21;;;;;;;3.72;0.70;;;19.60;66.80;;;;;;5033025;28;20030;-62
2021/05/05 11:42:10;;;;;;;1.42;0.60;;;19.70;66.60;;;;;;5032679;28;20021;-62
2021/05/05 11:44:39;;;;;;;1.20;0.40;;;19.80;66.40;;;;;;5033162;28;20017;-60
2021/05/05 11:47:16;;;;;;;1.60;0.28;;;19.90;66.30;;;;;;5033068;28;20108;-61
2021/05/05 11:49:44;;;;;;;1.65;0.45;;;19.80;66.40;;;;;;5032913;28;20043;-61
2021/05/05 11:52:30;;;;;;;5.22;0.68;;;19.60;66.40;;;;;;5033178;28;20025;-60
2021/05/05 11:55:00;;;;;;;3.60;0.70;;;19.50;66.80;;;;;;5051402;28;20025;-61
2021/05/05 11:57:29;;;;;;;1.77;0.50;;;19.40;67.10;;;;;;5041015;28;20029;-61
2021/05/05 11:59:55;;;;;;;2.20;0.65;;;19.30;67.10;;;;;;5033556;28;20082;-62
2021/05/05 12:02:22;;;;;;;1.85;0.55;;;19.30;67.30;;;;;;5034538;28;20480;-64
2021/05/05 12:04:49;;;;;;;3.08;0.65;;;19.40;67.30;;;;;;5053547;28;20380;-63
2021/05/05 12:07:19;;;;;;;7.50;1.13;;;19.50;67.40;;;;;;5053260;28;20036;-64
2021/05/05 12:09:46;;;;;;;5.22;0.77;;;19.60;67.40;;;;;;5053217;28;20028;-64
2021/05/05 12:12:27;;;;;;;4.30;1.00;;;19.70;67.80;;;;;;5052831;28;20025;-64
2021/05/05 12:15:03;;;;;;;11.15;0.93;;;19.90;67.80;;;;;;5053145;28;20025;-66
2021/05/05 12:17:34;;;;;;;3.88;1.00;;;20.00;68.80;;;;;;5053013;28;20028;-63
2021/05/05 12:20:08;;;;;;;3.92;0.60;;;20.10;68.00;;;;;;5053005;28;20021;-62
2021/05/05 12:22:36;;;;;;;4.13;0.80;;;20.00;67.80;;;;;;5052829;28;20502;-61
2021/05/05 12:25:12;;;;;;;5.25;0.93;;;19.90;67.70;;;;;;5052844;28;20021;-62
2021/05/05 12:27:39;;;;;;;6.03;1.00;;;19.90;67.80;;;;;;5052946;28;20108;-61
2021/05/05 12:30:07;;;;;;;2.97;0.57;;;19.90;67.80;;;;;;5052707;28;20044;-64
2021/05/05 12:32:47;;;;;;;3.33;0.40;;;19.90;68.00;;;;;;5052612;28;20052;-63
2021/05/05 12:35:20;;;;;;;2.15;0.50;;;19.80;67.90;;;;;;5050946;28;20035;-63
2021/05/05 12:37:46;;;;;;;4.80;0.75;;;19.80;68.00;;;;;;5033481;28;20026;-62
2021/05/05 12:40:13;;;;;;;5.13;0.82;;;19.80;68.00;;;;;;5032445;28;20048;-62
2021/05/05 12:42:38;;;;;;;2.75;0.82;;;19.70;68.10;;;;;;5032592;28;20053;-61
2021/05/05 12:45:13;;;;;;;10.13;1.10;;;19.70;68.20;;;;;;5032777;28;20122;-66
2021/05/05 12:47:39;;;;;;;3.92;0.80;;;19.60;68.90;;;;;;5031398;28;20025;-64
2021/05/05 12:50:07;;;;;;;7.15;0.82;;;19.80;70.90;;;;;;5035130;28;20137;-64
2021/05/05 12:52:37;;;;;;;5.65;0.90;;;20.00;70.80;;;;;;5032255;28;20033;-64
2021/05/05 12:55:29;;;;;;;12.13;1.50;;;20.20;70.60;;;;;;5032837;28;20112;-63
2021/05/05 12:58:05;;;;;;;4.80;0.80;;;20.40;70.20;;;;;;5035629;28;20068;-64
2021/05/05 13:00:31;;;;;;;5.07;0.90;;;20.40;69.90;;;;;;5045430;28;20021;-64